• Join FlightAware (Why Join?)
  • Login
  • US Flag 
10:08PM EDT


 

Airport Tracker/Info


-or-


 

Live Flight TrackerFlight Track Log ✈ SKW6345 ✈ 17-Jun-2013 ✈ KBZN - KSFO

Flight Track Log - Related Links

Times and Time Zones

All times are in EDT time to prevent confusion due to time zone crossing. See the SKW6345 flight status page for this flight to view local times or setup timezone preferences in your user account.

Time Position Orientation Groundspeed Altitude Reporting Facility
EDT Latitude Longitude Course Direction KTS MPH feet Rate Location/Type
01:59PM 45.7113 -111.3793 278° West  Level FlightAware Approximate
01:59PM 45.7031 -111.2014 236° Southwest 245 282 7,700  Level Salt Lake Center
02:00PM 45.7310 -111.5339 282° West  Level FlightAware Approximate
02:00PM 45.7100 -111.3094 275° West 265 305 9,600  Level Salt Lake Center
02:01PM 45.7455 -111.6880 288° West  Level FlightAware Approximate
02:01PM 45.7203 -111.4244 277° West 279 321 11,400  Level Salt Lake Center
02:02PM 45.7788 -111.8378 288° West  Level FlightAware Approximate
02:02PM 45.6836 -111.5292 243° Southwest 295 339 13,200  Level Salt Lake Center
02:03PM 45.8134 -111.9871 290° West  Level FlightAware Approximate
02:03PM 45.6358 -111.6311 236° Southwest 306 352 15,100  Level Salt Lake Center
02:04PM 45.5889 -111.7378 238° Southwest 314 361 16,700 1,380 Climbing Salt Lake Center
02:05PM 45.5392 -111.8483 237° Southwest 326 375 18,000 1,560 Climbing Salt Lake Center
02:06PM 45.4814 -111.9825 238° Southwest 330 380 20,000 1,440 Climbing Salt Lake Center
02:07PM 45.4311 -112.0956 238° Southwest 336 387 21,000 960 Climbing Salt Lake Center
02:08PM 45.3789 -112.2125 238° Southwest 348 400 22,100 1,320 Climbing Salt Lake Center
02:09PM 45.3214 -112.3397 237° Southwest 350 403 23,800 1,260 Climbing Salt Lake Center
02:10PM 45.2717 -112.4500 237° Southwest 346 398 24,800 960 Climbing Salt Lake Center
02:11PM 45.2136 -112.5792 237° Southwest 348 400 25,800 780 Climbing Salt Lake Center
02:12PM 45.1622 -112.6922 237° Southwest 354 407 26,500 660 Climbing Salt Lake Center
02:13PM 45.1092 -112.8078 237° Southwest 362 417 27,200 720 Climbing Salt Lake Center
02:14PM 45.0483 -112.9436 238° Southwest 368 423 28,000 720 Climbing Salt Lake Center
02:15PM 44.9953 -113.0597 237° Southwest 367 422 28,700 660 Climbing Salt Lake Center
02:16PM 44.9311 -113.1961 236° Southwest 373 429 29,400 540 Climbing Salt Lake Center
02:18PM 44.8764 -113.3136 237° Southwest 374 430 29,900 480 Climbing Salt Lake Center
02:19PM 44.8131 -113.4525 237° Southwest 378 435 30,500 480 Climbing Salt Lake Center
02:20PM 44.7572 -113.5700 236° Southwest 377 434 31,000 480 Climbing Salt Lake Center
02:21PM 44.6928 -113.7100 237° Southwest 380 437 31,600 480 Climbing Salt Lake Center
02:22PM 44.6353 -113.8281 236° Southwest 382 440 32,000 180 Climbing Salt Lake Center
02:23PM 44.5706 -113.9683 237° Southwest 384 442 32,000  Level Salt Lake Center
02:24PM 44.5153 -114.0864 237° Southwest 381 438 32,000  Level Salt Lake Center
02:25PM 44.4517 -114.2250 237° Southwest 380 437 32,000  Level Salt Lake Center
02:26PM 44.3939 -114.3425 235° Southwest 380 437 32,000  Level Salt Lake Center
02:27PM 44.3275 -114.4789 236° Southwest 380 437 32,000  Level Salt Lake Center
02:28PM 44.2706 -114.5942 235° Southwest 378 435 32,000  Level Salt Lake Center
02:29PM 44.2047 -114.7300 236° Southwest 378 435 32,000  Level Salt Lake Center
02:30PM 44.1481 -114.8450 236° Southwest 377 434 32,000  Level Salt Lake Center
02:31PM 44.0914 -114.9631 236° Southwest 380 437 32,000  Level Salt Lake Center
02:32PM 44.0206 -115.1019 235° Southwest 392 451 32,000  Level Salt Lake Center
02:33PM 43.9617 -115.2211 236° Southwest 389 448 32,000  Level Salt Lake Center
02:34PM 43.8928 -115.3594 235° Southwest 389 448 32,000  Level Salt Lake Center
02:35PM 43.8339 -115.4786 236° Southwest 389 448 32,000  Level Salt Lake Center
02:36PM 43.7647 -115.6164 235° Southwest 387 445 32,000  Level Salt Lake Center
02:37PM 43.7064 -115.7339 236° Southwest 385 443 32,000  Level Salt Lake Center
02:38PM 43.6369 -115.8711 235° Southwest 386 444 32,000  Level Salt Lake Center
02:39PM 43.5792 -115.9858 235° Southwest 380 437 32,000  Level Salt Lake Center
02:40PM 43.5214 -116.0992 235° Southwest 377 434 32,000  Level Salt Lake Center
02:41PM 43.4536 -116.2306 235° Southwest 376 433 32,000  Level Salt Lake Center
02:42PM 43.3961 -116.3425 235° Southwest 373 429 32,000  Level Salt Lake Center
02:43PM 43.3286 -116.4742 235° Southwest 376 433 32,000  Level Salt Lake Center
02:44PM 43.2697 -116.5864 234° Southwest 379 436 32,000  Level Salt Lake Center
02:45PM 43.2011 -116.7175 234° Southwest 378 435 32,000  Level Salt Lake Center
02:46PM 43.1428 -116.8306 235° Southwest 377 434 32,000  Level Salt Lake Center
02:47PM 43.0736 -116.9617 234° Southwest 381 438 32,000  Level Salt Lake Center
02:49PM 43.0144 -117.0736 234° Southwest 378 435 32,000  Level Salt Lake Center
02:50PM 42.9450 -117.2056 234° Southwest 380 437 32,000  Level Salt Lake Center
02:51PM 42.8850 -117.3183 234° Southwest 382 440 32,000  Level Salt Lake Center
02:52PM 42.8242 -117.4300 233° Southwest 384 442 32,000  Level Salt Lake Center
02:53PM 42.7558 -117.5608 235° Southwest 379 436 32,000  Level Salt Lake Center
02:54PM 42.6972 -117.6711 234° Southwest 376 433 32,000  Level Salt Lake Center
02:55PM 42.6281 -117.7975 233° Southwest 373 429 32,000  Level Salt Lake Center
02:56PM 42.5561 -117.8878 223° Southwest 372 428 32,000  Level Salt Lake Center
02:57PM 42.4519 -117.9525 205° Southwest 370 426 32,000  Level Salt Lake Center
02:58PM 42.3606 -118.0097 205° Southwest 376 433 32,000  Level Salt Lake Center
02:59PM 42.2544 -118.0736 204° Southwest 376 433 32,000  Level Salt Lake Center
03:00PM 42.1658 -118.1272 204° Southwest 376 433 32,000  Level Salt Lake Center
03:01PM 42.0586 -118.1917 204° Southwest 378 435 32,000  Level Salt Lake Center
03:02PM 41.9667 -118.2481 205° Southwest 379 436 32,000  Level Salt Lake Center
03:03PM 41.8575 -118.3133 204° Southwest 384 442 32,000  Level Salt Lake Center
03:04PM 41.7644 -118.3703 205° Southwest 385 443 32,000  Level Salt Lake Center
03:05PM 41.6569 -118.4331 204° Southwest 379 436 32,000  Level Salt Lake Center
03:06PM 41.5642 -118.4894 204° Southwest 383 441 32,000  Level Salt Lake Center
03:07PM 41.4575 -118.5522 204° Southwest 377 434 32,000  Level Salt Lake Center
03:08PM 41.3658 -118.6061 204° Southwest 376 433 32,000  Level Salt Lake Center
03:09PM 41.2600 -118.6675 204° Southwest 374 430 32,000  Level Salt Lake Center
03:10PM 41.1692 -118.7222 204° Southwest 373 429 32,000  Level Salt Lake Center
03:11PM 41.0622 -118.7850 204° Southwest 376 433 32,000  Level Salt Lake Center
03:12PM 40.9703 -118.8372 203° Southwest 377 434 32,000  Level Salt Lake Center
03:13PM 40.8789 -118.8925 205° Southwest 377 434 32,000  Level Salt Lake Center
03:14PM 40.8533 -118.9164 215° Southwest 376 433 32,000  Level Oakland Center
03:15PM 40.7853 -119.0164 228° Southwest 378 435 32,000  Level Oakland Center
03:16PM 40.7156 -119.1189 228° Southwest 379 436 32,000  Level Oakland Center
03:17PM 40.6317 -119.2458 229° Southwest 380 437 32,000  Level Oakland Center
03:18PM 40.5622 -119.3497 229° Southwest 380 437 32,000  Level Oakland Center
03:19PM 40.4967 -119.4506 229° Southwest 369 425 32,000  Level Oakland Center
03:20PM 40.4286 -119.5506 228° Southwest 368 423 32,000  Level Oakland Center
03:21PM 40.3606 -119.6522 229° Southwest 370 426 32,000  Level Oakland Center
03:22PM 40.2914 -119.7528 228° Southwest 371 427 32,000  Level Oakland Center
03:23PM 40.2225 -119.8550 229° Southwest 374 430 32,000  Level Oakland Center
03:24PM 40.1397 -119.9767 228° Southwest 375 432 32,000  Level Oakland Center
03:25PM 40.0708 -120.0786 229° Southwest 376 433 32,000  Level Oakland Center
03:26PM 39.9997 -120.1803 228° Southwest 372 428 32,000  Level Oakland Center
03:27PM 39.9317 -120.2811 229° Southwest 369 425 32,000  Level Oakland Center
03:28PM 39.8631 -120.3803 228° Southwest 370 426 32,000  Level Oakland Center
03:29PM 39.7922 -120.4822 228° Southwest 378 435 32,000  Level Oakland Center
03:30PM 39.7197 -120.5856 228° Southwest 384 442 32,000  Level Oakland Center
03:31PM 39.6472 -120.6914 228° Southwest 392 451 32,000  Level Oakland Center
03:32PM 39.5719 -120.7978 227° Southwest 399 459 32,000  Level Oakland Center
03:33PM 39.4819 -120.9283 228° Southwest 405 466 32,000  Level Oakland Center
03:34PM 39.4061 -121.0358 228° Southwest 406 467 32,000  Level Oakland Center
03:35PM 39.3292 -121.1433 227° Southwest 407 468 32,000  Level Oakland Center
03:36PM 39.2522 -121.2514 227° Southwest 409 471 32,000  Level Oakland Center
03:37PM 39.1758 -121.3611 228° Southwest 411 473 32,000  Level Oakland Center
03:38PM 39.0989 -121.4689 227° Southwest 411 473 32,000  Level Oakland Center
03:39PM 39.0217 -121.5767 227° Southwest 411 473 32,000  Level Oakland Center
03:40PM 38.9300 -121.7081 228° Southwest 414 476 32,000  Level Oakland Center
03:41PM 38.8525 -121.8158 227° Southwest 414 476 32,000 -480 Level Oakland Center
03:42PM 38.7569 -121.9064 216° Southwest 436 502 31,100 -960 Descending Oakland Center
03:43PM 38.6661 -121.9864 215° Southwest 437 503 30,100 -1,920 Descending Oakland Center
03:44PM 38.5506 -122.0917 215° Southwest 424 488 27,200 -2,640 Descending Oakland Center
03:45PM 38.4556 -122.1772 215° Southwest 417 480 24,800 -2,400 Descending Oakland Center
03:46PM 38.3633 -122.2611 216° Southwest 407 468 22,400 -2,400 Descending Oakland Center
03:47PM 38.2744 -122.3397 215° Southwest 391 450 20,000 -2,340 Descending Oakland Center
03:48PM 38.1894 -122.4161 215° Southwest 377 434 17,700 -2,280 Descending Oakland Center
03:49PM 38.1061 -122.4897 215° Southwest 367 422 15,400 -2,220 Descending Oakland Center
03:51PM 38.0269 -122.5611 215° Southwest 353 406 13,200 -2,100 Descending Oakland Center
03:52PM 37.9361 -122.6425 215° Southwest 349 402 11,200 -1,140 Descending Oakland Center
03:53PM 37.8489 -122.6192 168° South 361 415 11,000 -180 Descending Oakland Center
03:53PM 37.8167 -122.5833 139° Southeast 359 413 11,000  Level Northern Cal TRACON
03:54PM 37.7500 -122.5167 142° Southeast 274 315 11,000  Level Northern Cal TRACON
03:55PM 37.7000 -122.4500 133° Southeast 251 289 11,000  Level Northern Cal TRACON
03:56PM 37.6333 -122.4000 149° Southeast 257 296 11,000 -360 Level Northern Cal TRACON
03:57PM 37.5833 -122.3500 142° Southeast 253 291 10,300 -1,200 Descending Northern Cal TRACON
03:58PM 37.5167 -122.3000 149° Southeast 247 284 8,700 -1,560 Descending Northern Cal TRACON
03:59PM 37.4833 -122.2500 130° Southeast 251 289 7,200 -1,440 Descending Northern Cal TRACON
04:00PM 37.4500 -122.1500 113° Southeast 244 281 5,700 -1,440 Descending Northern Cal TRACON
04:01PM 37.4500 -122.0833 90° East 254 292 4,400 -900 Descending Northern Cal TRACON
04:02PM 37.5000 -122.1000 345° North 205 236 4,000 -240 Descending Northern Cal TRACON
04:03PM 37.5333 -122.1667 302° West 196 226 4,000 -720 Level Northern Cal TRACON
04:04PM 37.5500 -122.2167 293° West 168 193 2,600 -1,140 Descending Northern Cal TRACON
04:05PM 37.5667 -122.2667 293° West 155 178 1,800 -900 Descending Northern Cal TRACON
04:06PM 37.6000 -122.3167 310° West 118 136 800 -780 Descending Northern Cal TRACON
04:07PM 37.6000 -122.3500 270° West 121 139 300 -600 Descending Northern Cal TRACON